185-3 — WDF9705 — position and weather

sailwx.info

Track history (hours):
 
Tides and Currents Weather Stations Pressure Air Temp Water Temp Dewpoint Dewpoint Depression Visibility Wind Speed Wind Dir Waves Ship Positions

185-3

Owner: Curtin Maritime Corp, Long Beach, CA. More information available from US FCC via Universal Licensing System and Coast Guard Vessel Documentation Center.

Last reported at 2018-Jun-13 19:24 UTC. Time now 2018-Jun-19 04:24 UTC.
Position N 33°46' W 118°13'.

Length 56 m.

Type: Ship. MMSI: 367507960.

Date/timePositionNaut miles runAvg speedWind from/ knotsBaromVisibWave heightAir tempDewpointWater temp
2018-Jun-13 19:24N 33°46' W 118°13'0 0.1
2018-Jun-13 19:01N 33°46' W 118°13'0 0.0
2018-Jun-13 18:30N 33°46' W 118°13'0 0.1
2018-Jun-13 18:00N 33°46' W 118°13'0 0.0
2018-Jun-13 17:30N 33°46' W 118°13'0 0.0
2018-Jun-13 17:01N 33°46' W 118°13'0 0.0
2018-Jun-13 16:30N 33°46' W 118°13'0 0.1
2018-Jun-13 16:01N 33°46' W 118°13'0 0.0
2018-Jun-13 15:30N 33°46' W 118°13'0 0.0
2018-Jun-13 15:00N 33°46' W 118°13'0 0.2
2018-Jun-13 14:30N 33°46' W 118°13'0 0.0
2018-Jun-13 14:00N 33°46' W 118°13'0 0.0
2018-Jun-13 13:30N 33°46' W 118°13'0 0.0
2018-Jun-13 13:01N 33°46' W 118°13'0 0.0
2018-Jun-13 12:30N 33°46' W 118°13'0 0.0
2018-Jun-13 12:00N 33°46' W 118°13'0 0.0
2018-Jun-13 11:30N 33°46' W 118°13'0 0.0
2018-Jun-13 10:59N 33°46' W 118°13'0 0.0
2018-Jun-13 10:28N 33°46' W 118°13'0 0.0
2018-Jun-13 10:00N 33°46' W 118°13'0 0.0
2018-Jun-13 09:30N 33°46' W 118°13'0 0.0
2018-Jun-13 09:00N 33°46' W 118°13'0 0.0
2018-Jun-13 08:30N 33°46' W 118°13'0 0.0
2018-Jun-13 08:00N 33°46' W 118°13'0 0.0
2018-Jun-13 07:30N 33°46' W 118°13'1 1.3
2018-Jun-13 07:01N 33°46' W 118°13'1 1.3
2018-Jun-13 06:31N 33°45' W 118°13'0 0.2
2018-Jun-13 06:00N 33°45' W 118°13'0 0.9
2018-Jun-13 05:30N 33°45' W 118°13'1 2.5
2018-Jun-13 05:00N 33°44' W 118°13'2 4.8
2018-Jun-13 04:31N 33°42' W 118°15'3 5.7
2018-Jun-13 04:01N 33°41' W 118°18'3 5.9
2018-Jun-13 03:26N 33°42' W 118°22'6 5.5
2018-Jun-13 02:18N 33°45' W 118°28'2 5.5
2018-Jun-13 02:00N 33°47' W 118°28'3 5.4
2018-Jun-13 01:28N 33°49' W 118°28'5 1.3
2018-Jun-12 21:42N 33°54' W 118°27'0 0.2
2018-Jun-12 21:24N 33°54' W 118°27'0 0.1
2018-Jun-12 20:40N 33°54' W 118°27'0 0.0
2018-Jun-12 20:18N 33°54' W 118°27'0 0.0
2018-Jun-12 20:00N 33°54' W 118°27'0 0.0
2018-Jun-12 13:35N 33°54' W 118°27'0 0.0
2018-Jun-12 13:12N 33°54' W 118°27'0 0.0
2018-Jun-12 12:43N 33°54' W 118°27'0 0.0
2018-Jun-12 12:31N 33°54' W 118°27'0 0.0
2018-Jun-12 11:57N 33°54' W 118°27'0 0.0
2018-Jun-12 11:22N 33°54' W 118°27'0 0.0
2018-Jun-12 10:53N 33°54' W 118°27'0 0.0
2018-Jun-12 10:24N 33°54' W 118°27'  
Track history (hours):
 
Tides and Currents Weather Stations Pressure Air Temp Water Temp Dewpoint Dewpoint Depression Visibility Wind Speed Wind Dir Waves Ship Positions

185-3

Owner: Curtin Maritime Corp, Long Beach, CA. More information available from US FCC via Universal Licensing System and Coast Guard Vessel Documentation Center.

Last reported at 2018-Jun-13 19:24 UTC. Time now 2018-Jun-19 04:24 UTC.
Position N 33°46' W 118°13'.

Length 56 m.

Type: Ship. MMSI: 367507960.

Date/timePositionNaut miles runAvg speedWind from/ knotsBaromVisibWave heightAir tempDewpointWater temp
2018-Jun-13 19:24N 33°46' W 118°13'0 0.1
2018-Jun-13 19:01N 33°46' W 118°13'0 0.0
2018-Jun-13 18:30N 33°46' W 118°13'0 0.1
2018-Jun-13 18:00N 33°46' W 118°13'0 0.0
2018-Jun-13 17:30N 33°46' W 118°13'0 0.0
2018-Jun-13 17:01N 33°46' W 118°13'0 0.0
2018-Jun-13 16:30N 33°46' W 118°13'0 0.1
2018-Jun-13 16:01N 33°46' W 118°13'0 0.0
2018-Jun-13 15:30N 33°46' W 118°13'0 0.0
2018-Jun-13 15:00N 33°46' W 118°13'0 0.2
2018-Jun-13 14:30N 33°46' W 118°13'0 0.0
2018-Jun-13 14:00N 33°46' W 118°13'0 0.0
2018-Jun-13 13:30N 33°46' W 118°13'0 0.0
2018-Jun-13 13:01N 33°46' W 118°13'0 0.0
2018-Jun-13 12:30N 33°46' W 118°13'0 0.0
2018-Jun-13 12:00N 33°46' W 118°13'0 0.0
2018-Jun-13 11:30N 33°46' W 118°13'0 0.0
2018-Jun-13 10:59N 33°46' W 118°13'0 0.0
2018-Jun-13 10:28N 33°46' W 118°13'0 0.0
2018-Jun-13 10:00N 33°46' W 118°13'0 0.0
2018-Jun-13 09:30N 33°46' W 118°13'0 0.0
2018-Jun-13 09:00N 33°46' W 118°13'0 0.0
2018-Jun-13 08:30N 33°46' W 118°13'0 0.0
2018-Jun-13 08:00N 33°46' W 118°13'0 0.0
2018-Jun-13 07:30N 33°46' W 118°13'1 1.3
2018-Jun-13 07:01N 33°46' W 118°13'1 1.3
2018-Jun-13 06:31N 33°45' W 118°13'0 0.2
2018-Jun-13 06:00N 33°45' W 118°13'0 0.9
2018-Jun-13 05:30N 33°45' W 118°13'1 2.5
2018-Jun-13 05:00N 33°44' W 118°13'2 4.8
2018-Jun-13 04:31N 33°42' W 118°15'3 5.7
2018-Jun-13 04:01N 33°41' W 118°18'3 5.9
2018-Jun-13 03:26N 33°42' W 118°22'6 5.5
2018-Jun-13 02:18N 33°45' W 118°28'2 5.5
2018-Jun-13 02:00N 33°47' W 118°28'3 5.4
2018-Jun-13 01:28N 33°49' W 118°28'5 1.3
2018-Jun-12 21:42N 33°54' W 118°27'0 0.2
2018-Jun-12 21:24N 33°54' W 118°27'0 0.1
2018-Jun-12 20:40N 33°54' W 118°27'0 0.0
2018-Jun-12 20:18N 33°54' W 118°27'0 0.0
2018-Jun-12 20:00N 33°54' W 118°27'0 0.0
2018-Jun-12 13:35N 33°54' W 118°27'0 0.0
2018-Jun-12 13:12N 33°54' W 118°27'0 0.0
2018-Jun-12 12:43N 33°54' W 118°27'0 0.0
2018-Jun-12 12:31N 33°54' W 118°27'0 0.0
2018-Jun-12 11:57N 33°54' W 118°27'0 0.0
2018-Jun-12 11:22N 33°54' W 118°27'0 0.0
2018-Jun-12 10:53N 33°54' W 118°27'0 0.0
2018-Jun-12 10:24N 33°54' W 118°27'  

Dump ship's entire track history